sensor_id;sensor_type;location;lat;lon;timestamp;P1;durP1;ratioP1;P2;durP2;ratioP2
22543;SDS011;11438;52.044;8.716;2022-10-31T00:00:58;7.18;;;4.75;;
22543;SDS011;11438;52.044;8.716;2022-10-31T00:03:24;9.77;;;5.00;;
22543;SDS011;11438;52.044;8.716;2022-10-31T00:05:51;11.98;;;6.00;;
22543;SDS011;11438;52.044;8.716;2022-10-31T00:08:17;9.25;;;5.05;;
22543;SDS011;11438;52.044;8.716;2022-10-31T00:10:43;9.82;;;5.78;;
22543;SDS011;11438;52.044;8.716;2022-10-31T00:13:10;10.15;;;5.40;;
22543;SDS011;11438;52.044;8.716;2022-10-31T00:15:37;9.55;;;4.85;;
22543;SDS011;11438;52.044;8.716;2022-10-31T00:18:04;10.30;;;5.03;;
22543;SDS011;11438;52.044;8.716;2022-10-31T00:20:31;8.93;;;5.05;;
22543;SDS011;11438;52.044;8.716;2022-10-31T00:22:57;11.35;;;5.82;;
22543;SDS011;11438;52.044;8.716;2022-10-31T00:25:27;11.95;;;5.75;;
22543;SDS011;11438;52.044;8.716;2022-10-31T00:27:54;8.45;;;5.30;;
22543;SDS011;11438;52.044;8.716;2022-10-31T00:30:19;9.88;;;5.38;;
22543;SDS011;11438;52.044;8.716;2022-10-31T00:32:45;7.50;;;4.47;;
22543;SDS011;11438;52.044;8.716;2022-10-31T00:35:10;7.68;;;4.95;;
22543;SDS011;11438;52.044;8.716;2022-10-31T00:37:36;9.90;;;4.93;;
22543;SDS011;11438;52.044;8.716;2022-10-31T00:40:02;11.82;;;4.60;;
22543;SDS011;11438;52.044;8.716;2022-10-31T00:42:27;5.90;;;4.00;;
22543;SDS011;11438;52.044;8.716;2022-10-31T00:44:53;7.10;;;3.78;;
22543;SDS011;11438;52.044;8.716;2022-10-31T00:47:18;7.10;;;4.18;;
22543;SDS011;11438;52.044;8.716;2022-10-31T00:49:44;10.35;;;3.95;;
22543;SDS011;11438;52.044;8.716;2022-10-31T00:52:10;7.20;;;3.92;;
22543;SDS011;11438;52.044;8.716;2022-10-31T00:54:35;7.78;;;4.55;;
22543;SDS011;11438;52.044;8.716;2022-10-31T00:57:01;7.88;;;4.78;;
22543;SDS011;11438;52.044;8.716;2022-10-31T00:59:26;6.05;;;4.18;;
22543;SDS011;11438;52.044;8.716;2022-10-31T01:01:52;7.25;;;4.30;;
22543;SDS011;11438;52.044;8.716;2022-10-31T01:04:17;8.70;;;3.90;;
22543;SDS011;11438;52.044;8.716;2022-10-31T01:06:43;7.57;;;3.90;;
22543;SDS011;11438;52.044;8.716;2022-10-31T01:09:08;6.60;;;3.65;;
22543;SDS011;11438;52.044;8.716;2022-10-31T01:11:34;8.95;;;3.85;;
22543;SDS011;11438;52.044;8.716;2022-10-31T01:14:00;9.30;;;3.90;;
22543;SDS011;11438;52.044;8.716;2022-10-31T01:16:26;6.72;;;3.90;;
22543;SDS011;11438;52.044;8.716;2022-10-31T01:18:52;6.78;;;3.78;;
22543;SDS011;11438;52.044;8.716;2022-10-31T01:23:45;5.65;;;3.72;;
22543;SDS011;11438;52.044;8.716;2022-10-31T01:28:39;7.45;;;4.03;;
22543;SDS011;11438;52.044;8.716;2022-10-31T01:31:13;6.38;;;3.47;;
22543;SDS011;11438;52.044;8.716;2022-10-31T01:33:39;5.45;;;3.78;;
22543;SDS011;11438;52.044;8.716;2022-10-31T01:36:12;9.30;;;4.32;;
22543;SDS011;11438;52.044;8.716;2022-10-31T01:38:40;9.02;;;4.25;;
22543;SDS011;11438;52.044;8.716;2022-10-31T01:41:06;6.00;;;3.70;;
22543;SDS011;11438;52.044;8.716;2022-10-31T01:43:44;7.63;;;3.83;;
22543;SDS011;11438;52.044;8.716;2022-10-31T01:46:11;6.43;;;3.95;;
22543;SDS011;11438;52.044;8.716;2022-10-31T01:48:37;7.53;;;4.40;;
22543;SDS011;11438;52.044;8.716;2022-10-31T01:51:05;9.05;;;4.82;;
22543;SDS011;11438;52.044;8.716;2022-10-31T01:53:31;8.20;;;4.85;;
22543;SDS011;11438;52.044;8.716;2022-10-31T01:55:58;7.30;;;4.93;;
22543;SDS011;11438;52.044;8.716;2022-10-31T01:58:25;10.55;;;4.57;;
22543;SDS011;11438;52.044;8.716;2022-10-31T02:00:57;7.22;;;4.07;;
22543;SDS011;11438;52.044;8.716;2022-10-31T02:03:24;5.45;;;3.83;;
22543;SDS011;11438;52.044;8.716;2022-10-31T02:05:51;6.72;;;3.58;;
22543;SDS011;11438;52.044;8.716;2022-10-31T02:08:30;5.85;;;4.00;;
22543;SDS011;11438;52.044;8.716;2022-10-31T02:10:57;11.68;;;4.20;;
22543;SDS011;11438;52.044;8.716;2022-10-31T02:13:25;8.43;;;4.07;;
22543;SDS011;11438;52.044;8.716;2022-10-31T02:15:53;7.57;;;4.53;;
22543;SDS011;11438;52.044;8.716;2022-10-31T02:18:21;7.13;;;4.20;;
22543;SDS011;11438;52.044;8.716;2022-10-31T02:32:43;5.05;;;3.85;;
22543;SDS011;11438;52.044;8.716;2022-10-31T02:38:16;5.80;;;4.47;;
22543;SDS011;11438;52.044;8.716;2022-10-31T02:48:33;9.32;;;5.03;;
22543;SDS011;11438;52.044;8.716;2022-10-31T02:51:03;7.50;;;4.25;;
22543;SDS011;11438;52.044;8.716;2022-10-31T02:53:36;6.43;;;3.63;;
22543;SDS011;11438;52.044;8.716;2022-10-31T02:56:15;7.82;;;4.18;;
22543;SDS011;11438;52.044;8.716;2022-10-31T02:58:49;8.00;;;4.80;;
22543;SDS011;11438;52.044;8.716;2022-10-31T03:12:28;9.25;;;4.35;;
22543;SDS011;11438;52.044;8.716;2022-10-31T03:17:48;7.15;;;4.40;;
22543;SDS011;11438;52.044;8.716;2022-10-31T03:20:22;7.80;;;4.85;;
22543;SDS011;11438;52.044;8.716;2022-10-31T03:22:53;7.95;;;4.57;;
22543;SDS011;11438;52.044;8.716;2022-10-31T03:25:21;8.57;;;4.85;;
22543;SDS011;11438;52.044;8.716;2022-10-31T03:27:47;7.03;;;4.60;;
22543;SDS011;11438;52.044;8.716;2022-10-31T03:30:15;7.88;;;4.90;;
22543;SDS011;11438;52.044;8.716;2022-10-31T03:32:47;7.60;;;4.68;;
22543;SDS011;11438;52.044;8.716;2022-10-31T03:35:17;9.75;;;5.07;;
22543;SDS011;11438;52.044;8.716;2022-10-31T03:37:44;7.80;;;4.57;;
22543;SDS011;11438;52.044;8.716;2022-10-31T03:40:11;8.32;;;4.90;;
22543;SDS011;11438;52.044;8.716;2022-10-31T03:42:40;8.65;;;4.60;;
22543;SDS011;11438;52.044;8.716;2022-10-31T03:45:12;5.90;;;4.05;;
22543;SDS011;11438;52.044;8.716;2022-10-31T03:47:40;9.07;;;4.78;;
22543;SDS011;11438;52.044;8.716;2022-10-31T03:50:08;8.07;;;4.80;;
22543;SDS011;11438;52.044;8.716;2022-10-31T03:55:43;9.07;;;4.55;;
22543;SDS011;11438;52.044;8.716;2022-10-31T04:01:04;6.97;;;4.50;;
22543;SDS011;11438;52.044;8.716;2022-10-31T04:03:32;10.75;;;4.47;;
22543;SDS011;11438;52.044;8.716;2022-10-31T04:06:03;6.95;;;4.53;;
22543;SDS011;11438;52.044;8.716;2022-10-31T04:08:32;8.02;;;5.38;;
22543;SDS011;11438;52.044;8.716;2022-10-31T04:11:05;4.47;;;3.72;;
22543;SDS011;11438;52.044;8.716;2022-10-31T04:13:34;10.68;;;4.78;;
22543;SDS011;11438;52.044;8.716;2022-10-31T04:16:03;10.43;;;5.00;;
22543;SDS011;11438;52.044;8.716;2022-10-31T04:18:29;10.50;;;5.35;;
22543;SDS011;11438;52.044;8.716;2022-10-31T04:21:02;8.88;;;4.78;;
22543;SDS011;11438;52.044;8.716;2022-10-31T04:23:29;9.35;;;5.43;;
22543;SDS011;11438;52.044;8.716;2022-10-31T04:25:56;10.90;;;5.30;;
22543;SDS011;11438;52.044;8.716;2022-10-31T04:28:21;9.27;;;5.15;;
22543;SDS011;11438;52.044;8.716;2022-10-31T04:30:47;8.40;;;4.88;;
22543;SDS011;11438;52.044;8.716;2022-10-31T04:33:13;8.20;;;4.47;;
22543;SDS011;11438;52.044;8.716;2022-10-31T04:35:39;11.18;;;4.90;;
22543;SDS011;11438;52.044;8.716;2022-10-31T04:38:04;7.60;;;5.10;;
22543;SDS011;11438;52.044;8.716;2022-10-31T04:40:30;6.93;;;4.35;;
22543;SDS011;11438;52.044;8.716;2022-10-31T04:42:56;7.70;;;4.72;;
22543;SDS011;11438;52.044;8.716;2022-10-31T04:45:21;5.60;;;4.38;;
22543;SDS011;11438;52.044;8.716;2022-10-31T04:47:47;7.55;;;4.80;;
22543;SDS011;11438;52.044;8.716;2022-10-31T04:50:12;5.70;;;3.42;;
22543;SDS011;11438;52.044;8.716;2022-10-31T04:52:42;6.68;;;3.70;;
22543;SDS011;11438;52.044;8.716;2022-10-31T04:55:08;7.50;;;4.25;;
22543;SDS011;11438;52.044;8.716;2022-10-31T04:57:41;6.57;;;4.00;;
22543;SDS011;11438;52.044;8.716;2022-10-31T05:00:11;6.95;;;4.38;;
22543;SDS011;11438;52.044;8.716;2022-10-31T05:02:42;7.43;;;4.28;;
22543;SDS011;11438;52.044;8.716;2022-10-31T05:05:09;7.95;;;4.18;;
22543;SDS011;11438;52.044;8.716;2022-10-31T05:07:37;5.93;;;4.45;;
22543;SDS011;11438;52.044;8.716;2022-10-31T05:10:04;6.53;;;4.00;;
22543;SDS011;11438;52.044;8.716;2022-10-31T05:12:30;6.93;;;4.15;;
22543;SDS011;11438;52.044;8.716;2022-10-31T05:14:56;6.47;;;3.83;;
22543;SDS011;11438;52.044;8.716;2022-10-31T05:17:21;6.43;;;3.90;;
22543;SDS011;11438;52.044;8.716;2022-10-31T05:19:47;6.63;;;4.20;;
22543;SDS011;11438;52.044;8.716;2022-10-31T05:22:12;5.95;;;4.13;;
22543;SDS011;11438;52.044;8.716;2022-10-31T05:24:38;7.40;;;4.45;;
22543;SDS011;11438;52.044;8.716;2022-10-31T05:27:03;7.47;;;4.05;;
22543;SDS011;11438;52.044;8.716;2022-10-31T05:29:29;5.95;;;4.00;;
22543;SDS011;11438;52.044;8.716;2022-10-31T05:31:58;8.32;;;4.30;;
22543;SDS011;11438;52.044;8.716;2022-10-31T05:34:23;7.82;;;4.28;;
22543;SDS011;11438;52.044;8.716;2022-10-31T05:36:49;6.22;;;4.10;;
22543;SDS011;11438;52.044;8.716;2022-10-31T05:39:15;7.53;;;3.78;;
22543;SDS011;11438;52.044;8.716;2022-10-31T05:41:40;5.88;;;4.05;;
22543;SDS011;11438;52.044;8.716;2022-10-31T05:44:06;4.82;;;3.88;;
22543;SDS011;11438;52.044;8.716;2022-10-31T05:46:31;6.75;;;4.10;;
22543;SDS011;11438;52.044;8.716;2022-10-31T05:48:57;4.88;;;3.70;;
22543;SDS011;11438;52.044;8.716;2022-10-31T05:51:22;6.00;;;3.97;;
22543;SDS011;11438;52.044;8.716;2022-10-31T05:53:48;6.38;;;4.00;;
22543;SDS011;11438;52.044;8.716;2022-10-31T05:56:13;7.57;;;4.43;;
22543;SDS011;11438;52.044;8.716;2022-10-31T05:58:39;5.72;;;4.22;;
22543;SDS011;11438;52.044;8.716;2022-10-31T06:01:04;6.18;;;3.90;;
22543;SDS011;11438;52.044;8.716;2022-10-31T06:03:30;8.23;;;4.15;;
22543;SDS011;11438;52.044;8.716;2022-10-31T06:05:56;7.55;;;3.53;;
22543;SDS011;11438;52.044;8.716;2022-10-31T06:08:21;5.80;;;3.10;;
22543;SDS011;11438;52.044;8.716;2022-10-31T06:10:47;5.88;;;3.85;;
22543;SDS011;11438;52.044;8.716;2022-10-31T06:13:12;5.93;;;3.70;;
22543;SDS011;11438;52.044;8.716;2022-10-31T06:15:38;9.20;;;4.40;;
22543;SDS011;11438;52.044;8.716;2022-10-31T06:18:04;7.25;;;4.15;;
22543;SDS011;11438;52.044;8.716;2022-10-31T06:20:31;6.78;;;4.30;;
22543;SDS011;11438;52.044;8.716;2022-10-31T06:22:58;7.32;;;4.47;;
22543;SDS011;11438;52.044;8.716;2022-10-31T06:25:24;7.30;;;4.53;;
22543;SDS011;11438;52.044;8.716;2022-10-31T06:27:49;8.50;;;4.78;;
22543;SDS011;11438;52.044;8.716;2022-10-31T06:30:15;6.45;;;4.45;;
22543;SDS011;11438;52.044;8.716;2022-10-31T06:32:40;7.18;;;4.47;;
22543;SDS011;11438;52.044;8.716;2022-10-31T06:35:06;6.72;;;3.67;;
22543;SDS011;11438;52.044;8.716;2022-10-31T06:37:32;5.15;;;3.40;;
22543;SDS011;11438;52.044;8.716;2022-10-31T06:39:57;4.72;;;3.03;;
22543;SDS011;11438;52.044;8.716;2022-10-31T06:42:23;7.10;;;3.08;;
22543;SDS011;11438;52.044;8.716;2022-10-31T06:44:48;5.85;;;3.05;;
22543;SDS011;11438;52.044;8.716;2022-10-31T06:47:14;3.97;;;2.97;;
22543;SDS011;11438;52.044;8.716;2022-10-31T06:49:39;4.10;;;2.60;;
22543;SDS011;11438;52.044;8.716;2022-10-31T06:52:05;3.70;;;2.78;;
22543;SDS011;11438;52.044;8.716;2022-10-31T06:54:30;4.78;;;3.13;;
22543;SDS011;11438;52.044;8.716;2022-10-31T06:56:56;4.82;;;3.30;;
22543;SDS011;11438;52.044;8.716;2022-10-31T06:59:21;9.50;;;4.53;;
22543;SDS011;11438;52.044;8.716;2022-10-31T07:01:49;7.90;;;4.43;;
22543;SDS011;11438;52.044;8.716;2022-10-31T07:04:15;8.95;;;4.95;;
22543;SDS011;11438;52.044;8.716;2022-10-31T07:06:40;9.32;;;5.07;;
22543;SDS011;11438;52.044;8.716;2022-10-31T07:09:06;7.65;;;4.57;;
22543;SDS011;11438;52.044;8.716;2022-10-31T07:11:31;8.05;;;4.70;;
22543;SDS011;11438;52.044;8.716;2022-10-31T07:13:57;5.93;;;4.20;;
22543;SDS011;11438;52.044;8.716;2022-10-31T07:16:23;6.43;;;4.70;;
22543;SDS011;11438;52.044;8.716;2022-10-31T07:18:48;7.75;;;4.35;;
22543;SDS011;11438;52.044;8.716;2022-10-31T07:21:15;9.02;;;4.95;;
22543;SDS011;11438;52.044;8.716;2022-10-31T07:23:40;7.28;;;4.93;;
22543;SDS011;11438;52.044;8.716;2022-10-31T07:26:06;11.25;;;5.30;;
22543;SDS011;11438;52.044;8.716;2022-10-31T07:28:32;8.88;;;4.65;;
22543;SDS011;11438;52.044;8.716;2022-10-31T07:30:58;8.45;;;5.25;;
22543;SDS011;11438;52.044;8.716;2022-10-31T07:33:23;7.78;;;4.85;;
22543;SDS011;11438;52.044;8.716;2022-10-31T07:35:53;7.90;;;4.80;;
22543;SDS011;11438;52.044;8.716;2022-10-31T07:38:21;8.93;;;5.63;;
22543;SDS011;11438;52.044;8.716;2022-10-31T07:40:50;8.63;;;6.25;;
22543;SDS011;11438;52.044;8.716;2022-10-31T07:43:17;11.98;;;6.45;;
22543;SDS011;11438;52.044;8.716;2022-10-31T07:45:43;13.55;;;7.80;;
22543;SDS011;11438;52.044;8.716;2022-10-31T07:48:13;13.07;;;7.13;;
22543;SDS011;11438;52.044;8.716;2022-10-31T07:50:39;14.63;;;7.82;;
22543;SDS011;11438;52.044;8.716;2022-10-31T07:53:08;12.10;;;7.78;;
22543;SDS011;11438;52.044;8.716;2022-10-31T07:55:35;15.13;;;7.93;;
22543;SDS011;11438;52.044;8.716;2022-10-31T07:58:03;13.60;;;8.45;;
22543;SDS011;11438;52.044;8.716;2022-10-31T08:00:40;12.25;;;6.68;;
22543;SDS011;11438;52.044;8.716;2022-10-31T08:03:08;18.52;;;9.60;;
22543;SDS011;11438;52.044;8.716;2022-10-31T08:05:36;15.05;;;8.13;;
22543;SDS011;11438;52.044;8.716;2022-10-31T08:08:02;17.27;;;9.15;;
22543;SDS011;11438;52.044;8.716;2022-10-31T08:10:29;15.63;;;9.18;;
22543;SDS011;11438;52.044;8.716;2022-10-31T08:12:59;20.90;;;11.05;;
22543;SDS011;11438;52.044;8.716;2022-10-31T08:15:28;18.02;;;10.35;;
22543;SDS011;11438;52.044;8.716;2022-10-31T08:17:54;21.23;;;10.55;;
22543;SDS011;11438;52.044;8.716;2022-10-31T08:20:20;18.63;;;11.02;;
22543;SDS011;11438;52.044;8.716;2022-10-31T08:22:56;20.30;;;11.65;;
22543;SDS011;11438;52.044;8.716;2022-10-31T08:25:26;22.80;;;11.18;;
22543;SDS011;11438;52.044;8.716;2022-10-31T08:27:54;20.25;;;10.48;;
22543;SDS011;11438;52.044;8.716;2022-10-31T08:30:21;17.38;;;10.15;;
22543;SDS011;11438;52.044;8.716;2022-10-31T08:32:47;18.85;;;10.25;;
22543;SDS011;11438;52.044;8.716;2022-10-31T08:35:23;19.73;;;11.07;;
22543;SDS011;11438;52.044;8.716;2022-10-31T08:37:52;19.25;;;10.13;;
22543;SDS011;11438;52.044;8.716;2022-10-31T08:40:19;17.88;;;10.45;;
22543;SDS011;11438;52.044;8.716;2022-10-31T08:42:45;19.42;;;11.18;;
22543;SDS011;11438;52.044;8.716;2022-10-31T08:45:10;21.70;;;12.52;;
22543;SDS011;11438;52.044;8.716;2022-10-31T08:47:35;20.38;;;11.65;;
22543;SDS011;11438;52.044;8.716;2022-10-31T08:50:01;19.33;;;11.50;;
22543;SDS011;11438;52.044;8.716;2022-10-31T08:52:27;18.80;;;11.60;;
22543;SDS011;11438;52.044;8.716;2022-10-31T08:54:52;21.88;;;12.25;;
22543;SDS011;11438;52.044;8.716;2022-10-31T08:57:18;17.67;;;11.30;;
22543;SDS011;11438;52.044;8.716;2022-10-31T08:59:43;21.73;;;11.23;;
22543;SDS011;11438;52.044;8.716;2022-10-31T09:02:09;21.40;;;12.48;;
22543;SDS011;11438;52.044;8.716;2022-10-31T09:04:34;21.65;;;12.73;;
22543;SDS011;11438;52.044;8.716;2022-10-31T09:07:00;21.25;;;12.30;;
22543;SDS011;11438;52.044;8.716;2022-10-31T09:09:25;20.92;;;11.32;;
22543;SDS011;11438;52.044;8.716;2022-10-31T09:11:51;23.00;;;13.38;;
22543;SDS011;11438;52.044;8.716;2022-10-31T09:14:16;22.65;;;11.45;;
22543;SDS011;11438;52.044;8.716;2022-10-31T09:16:42;23.35;;;12.60;;
22543;SDS011;11438;52.044;8.716;2022-10-31T09:19:07;23.13;;;13.13;;
22543;SDS011;11438;52.044;8.716;2022-10-31T09:21:33;16.45;;;10.88;;
22543;SDS011;11438;52.044;8.716;2022-10-31T09:23:59;19.30;;;11.50;;
22543;SDS011;11438;52.044;8.716;2022-10-31T09:26:24;19.85;;;12.13;;
22543;SDS011;11438;52.044;8.716;2022-10-31T09:28:50;16.98;;;11.30;;
22543;SDS011;11438;52.044;8.716;2022-10-31T09:31:15;21.70;;;13.23;;
22543;SDS011;11438;52.044;8.716;2022-10-31T09:33:41;21.90;;;12.63;;
22543;SDS011;11438;52.044;8.716;2022-10-31T09:36:07;21.15;;;13.20;;
22543;SDS011;11438;52.044;8.716;2022-10-31T09:38:32;25.20;;;14.07;;
22543;SDS011;11438;52.044;8.716;2022-10-31T09:52:20;28.75;;;14.05;;
22543;SDS011;11438;52.044;8.716;2022-10-31T09:54:56;23.35;;;13.43;;
22543;SDS011;11438;52.044;8.716;2022-10-31T09:57:28;28.20;;;14.70;;
22543;SDS011;11438;52.044;8.716;2022-10-31T09:59:57;28.30;;;15.45;;
22543;SDS011;11438;52.044;8.716;2022-10-31T10:02:26;25.05;;;14.13;;
22543;SDS011;11438;52.044;8.716;2022-10-31T10:05:00;23.73;;;13.82;;
22543;SDS011;11438;52.044;8.716;2022-10-31T10:13:12;21.80;;;13.45;;
22543;SDS011;11438;52.044;8.716;2022-10-31T10:18:42;25.15;;;14.43;;
22543;SDS011;11438;52.044;8.716;2022-10-31T10:21:36;21.58;;;12.98;;
22543;SDS011;11438;52.044;8.716;2022-10-31T10:27:12;23.48;;;13.43;;
22543;SDS011;11438;52.044;8.716;2022-10-31T10:29:45;26.77;;;14.02;;
22543;SDS011;11438;52.044;8.716;2022-10-31T10:32:19;28.00;;;14.00;;
22543;SDS011;11438;52.044;8.716;2022-10-31T10:34:51;23.45;;;14.00;;
22543;SDS011;11438;52.044;8.716;2022-10-31T10:42:40;26.88;;;14.35;;
22543;SDS011;11438;52.044;8.716;2022-10-31T10:45:28;24.42;;;13.82;;
22543;SDS011;11438;52.044;8.716;2022-10-31T10:48:23;21.98;;;13.15;;
22543;SDS011;11438;52.044;8.716;2022-10-31T10:50:52;22.35;;;13.52;;
22543;SDS011;11438;52.044;8.716;2022-10-31T10:56:03;24.77;;;14.32;;
22543;SDS011;11438;52.044;8.716;2022-10-31T10:58:31;23.40;;;13.13;;
22543;SDS011;11438;52.044;8.716;2022-10-31T11:00:56;20.60;;;12.80;;
22543;SDS011;11438;52.044;8.716;2022-10-31T11:03:22;19.65;;;12.95;;
22543;SDS011;11438;52.044;8.716;2022-10-31T11:05:52;21.60;;;12.10;;
22543;SDS011;11438;52.044;8.716;2022-10-31T11:08:23;22.15;;;12.10;;
22543;SDS011;11438;52.044;8.716;2022-10-31T11:11:41;22.98;;;12.20;;
22543;SDS011;11438;52.044;8.716;2022-10-31T11:13:52;22.40;;;12.02;;
22543;SDS011;11438;52.044;8.716;2022-10-31T11:18:51;22.65;;;12.10;;
22543;SDS011;11438;52.044;8.716;2022-10-31T11:21:29;22.70;;;11.63;;
22543;SDS011;11438;52.044;8.716;2022-10-31T11:24:03;20.40;;;11.68;;
22543;SDS011;11438;52.044;8.716;2022-10-31T11:26:36;22.25;;;11.40;;
22543;SDS011;11438;52.044;8.716;2022-10-31T11:29:03;20.33;;;11.65;;
22543;SDS011;11438;52.044;8.716;2022-10-31T11:31:30;18.77;;;10.82;;
22543;SDS011;11438;52.044;8.716;2022-10-31T11:33:59;19.90;;;10.82;;
22543;SDS011;11438;52.044;8.716;2022-10-31T11:36:28;15.48;;;10.05;;
22543;SDS011;11438;52.044;8.716;2022-10-31T11:38:57;18.92;;;8.95;;
22543;SDS011;11438;52.044;8.716;2022-10-31T11:41:33;14.93;;;9.15;;
22543;SDS011;11438;52.044;8.716;2022-10-31T11:44:05;13.70;;;8.40;;
22543;SDS011;11438;52.044;8.716;2022-10-31T11:46:42;13.40;;;7.93;;
22543;SDS011;11438;52.044;8.716;2022-10-31T11:49:13;16.02;;;7.40;;
22543;SDS011;11438;52.044;8.716;2022-10-31T11:51:46;15.25;;;8.85;;
22543;SDS011;11438;52.044;8.716;2022-10-31T11:54:24;11.68;;;7.18;;
22543;SDS011;11438;52.044;8.716;2022-10-31T11:56:55;15.15;;;7.35;;
22543;SDS011;11438;52.044;8.716;2022-10-31T12:01:50;16.02;;;7.70;;
22543;SDS011;11438;52.044;8.716;2022-10-31T12:04:17;12.52;;;7.57;;
22543;SDS011;11438;52.044;8.716;2022-10-31T12:06:43;13.38;;;7.30;;
22543;SDS011;11438;52.044;8.716;2022-10-31T12:09:22;12.73;;;6.93;;
22543;SDS011;11438;52.044;8.716;2022-10-31T12:17:40;11.77;;;6.63;;
22543;SDS011;11438;52.044;8.716;2022-10-31T12:20:25;11.13;;;6.45;;
22543;SDS011;11438;52.044;8.716;2022-10-31T12:23:15;13.68;;;7.05;;
22543;SDS011;11438;52.044;8.716;2022-10-31T12:37:15;11.48;;;6.32;;
22543;SDS011;11438;52.044;8.716;2022-10-31T12:48:10;13.52;;;7.70;;
22543;SDS011;11438;52.044;8.716;2022-10-31T12:54:00;15.27;;;7.30;;
22543;SDS011;11438;52.044;8.716;2022-10-31T12:56:40;14.32;;;7.97;;
22543;SDS011;11438;52.044;8.716;2022-10-31T12:59:29;12.20;;;7.03;;
22543;SDS011;11438;52.044;8.716;2022-10-31T13:02:00;11.15;;;6.43;;
22543;SDS011;11438;52.044;8.716;2022-10-31T13:10:27;15.40;;;6.40;;
22543;SDS011;11438;52.044;8.716;2022-10-31T13:13:07;13.35;;;6.45;;
22543;SDS011;11438;52.044;8.716;2022-10-31T13:15:56;10.80;;;6.18;;
22543;SDS011;11438;52.044;8.716;2022-10-31T13:21:27;9.55;;;5.57;;
22543;SDS011;11438;52.044;8.716;2022-10-31T13:24:00;12.98;;;6.22;;
22543;SDS011;11438;52.044;8.716;2022-10-31T13:26:43;8.73;;;5.53;;
22543;SDS011;11438;52.044;8.716;2022-10-31T13:31:54;14.02;;;6.50;;
22543;SDS011;11438;52.044;8.716;2022-10-31T13:42:54;10.77;;;5.25;;
22543;SDS011;11438;52.044;8.716;2022-10-31T13:45:25;11.23;;;5.55;;
22543;SDS011;11438;52.044;8.716;2022-10-31T13:47:56;10.68;;;5.82;;
22543;SDS011;11438;52.044;8.716;2022-10-31T13:50:30;7.47;;;5.30;;
22543;SDS011;11438;52.044;8.716;2022-10-31T13:53:10;10.73;;;5.90;;
22543;SDS011;11438;52.044;8.716;2022-10-31T13:55:41;9.63;;;5.90;;
22543;SDS011;11438;52.044;8.716;2022-10-31T13:58:28;10.20;;;5.68;;
22543;SDS011;11438;52.044;8.716;2022-10-31T14:01:28;11.63;;;5.38;;
22543;SDS011;11438;52.044;8.716;2022-10-31T14:03:53;9.27;;;5.40;;
22543;SDS011;11438;52.044;8.716;2022-10-31T14:06:54;9.23;;;5.70;;
22543;SDS011;11438;52.044;8.716;2022-10-31T14:09:31;10.32;;;6.00;;
22543;SDS011;11438;52.044;8.716;2022-10-31T14:12:00;11.02;;;5.85;;
22543;SDS011;11438;52.044;8.716;2022-10-31T14:14:30;10.65;;;5.50;;
22543;SDS011;11438;52.044;8.716;2022-10-31T14:17:12;11.15;;;5.57;;
22543;SDS011;11438;52.044;8.716;2022-10-31T14:19:55;9.50;;;5.75;;
22543;SDS011;11438;52.044;8.716;2022-10-31T14:22:22;10.77;;;5.53;;
22543;SDS011;11438;52.044;8.716;2022-10-31T14:24:48;10.45;;;5.63;;
22543;SDS011;11438;52.044;8.716;2022-10-31T14:29:46;11.15;;;5.80;;
22543;SDS011;11438;52.044;8.716;2022-10-31T14:51:12;7.55;;;4.93;;
22543;SDS011;11438;52.044;8.716;2022-10-31T14:53:50;7.97;;;5.57;;
22543;SDS011;11438;52.044;8.716;2022-10-31T14:56:20;9.80;;;5.75;;
22543;SDS011;11438;52.044;8.716;2022-10-31T14:58:50;12.13;;;5.53;;
22543;SDS011;11438;52.044;8.716;2022-10-31T15:01:24;11.07;;;5.75;;
22543;SDS011;11438;52.044;8.716;2022-10-31T15:03:57;9.55;;;5.70;;
22543;SDS011;11438;52.044;8.716;2022-10-31T15:06:27;10.02;;;6.18;;
22543;SDS011;11438;52.044;8.716;2022-10-31T15:09:01;8.63;;;5.03;;
22543;SDS011;11438;52.044;8.716;2022-10-31T15:11:27;7.65;;;5.00;;
22543;SDS011;11438;52.044;8.716;2022-10-31T15:13:53;10.85;;;5.47;;
22543;SDS011;11438;52.044;8.716;2022-10-31T15:16:21;9.40;;;5.40;;
22543;SDS011;11438;52.044;8.716;2022-10-31T15:18:56;10.43;;;5.57;;
22543;SDS011;11438;52.044;8.716;2022-10-31T15:21:27;11.68;;;5.85;;
22543;SDS011;11438;52.044;8.716;2022-10-31T15:23:54;11.50;;;5.85;;
22543;SDS011;11438;52.044;8.716;2022-10-31T15:26:24;12.75;;;5.35;;
22543;SDS011;11438;52.044;8.716;2022-10-31T15:28:58;8.98;;;5.05;;
22543;SDS011;11438;52.044;8.716;2022-10-31T15:31:30;10.20;;;5.95;;
22543;SDS011;11438;52.044;8.716;2022-10-31T15:33:59;9.25;;;5.43;;
22543;SDS011;11438;52.044;8.716;2022-10-31T15:36:32;7.13;;;5.20;;
22543;SDS011;11438;52.044;8.716;2022-10-31T15:38:58;9.32;;;5.00;;
22543;SDS011;11438;52.044;8.716;2022-10-31T15:41:34;9.52;;;5.32;;
22543;SDS011;11438;52.044;8.716;2022-10-31T15:44:25;10.95;;;4.65;;
22543;SDS011;11438;52.044;8.716;2022-10-31T15:49:29;9.80;;;5.15;;
22543;SDS011;11438;52.044;8.716;2022-10-31T15:52:10;10.10;;;5.10;;
22543;SDS011;11438;52.044;8.716;2022-10-31T15:54:36;10.52;;;5.45;;
22543;SDS011;11438;52.044;8.716;2022-10-31T15:57:12;7.85;;;4.97;;
22543;SDS011;11438;52.044;8.716;2022-10-31T15:59:38;9.23;;;5.10;;
22543;SDS011;11438;52.044;8.716;2022-10-31T16:02:10;8.98;;;5.30;;
22543;SDS011;11438;52.044;8.716;2022-10-31T16:04:37;8.45;;;5.05;;
22543;SDS011;11438;52.044;8.716;2022-10-31T16:07:13;7.32;;;4.80;;
22543;SDS011;11438;52.044;8.716;2022-10-31T16:09:50;9.48;;;5.97;;
22543;SDS011;11438;52.044;8.716;2022-10-31T16:12:16;13.77;;;5.35;;
22543;SDS011;11438;52.044;8.716;2022-10-31T16:14:41;13.32;;;4.95;;
22543;SDS011;11438;52.044;8.716;2022-10-31T16:17:11;8.88;;;4.55;;
22543;SDS011;11438;52.044;8.716;2022-10-31T16:19:47;7.65;;;4.70;;
22543;SDS011;11438;52.044;8.716;2022-10-31T16:22:21;8.80;;;5.10;;
22543;SDS011;11438;52.044;8.716;2022-10-31T16:24:50;7.97;;;4.72;;
22543;SDS011;11438;52.044;8.716;2022-10-31T16:27:37;7.00;;;4.35;;
22543;SDS011;11438;52.044;8.716;2022-10-31T16:33:19;7.88;;;4.65;;
22543;SDS011;11438;52.044;8.716;2022-10-31T16:35:47;9.18;;;5.20;;
22543;SDS011;11438;52.044;8.716;2022-10-31T16:38:13;7.13;;;5.18;;
22543;SDS011;11438;52.044;8.716;2022-10-31T16:40:38;8.35;;;4.68;;
22543;SDS011;11438;52.044;8.716;2022-10-31T16:43:04;7.15;;;4.97;;
22543;SDS011;11438;52.044;8.716;2022-10-31T16:45:35;10.73;;;5.35;;
22543;SDS011;11438;52.044;8.716;2022-10-31T16:48:03;7.95;;;5.70;;
22543;SDS011;11438;52.044;8.716;2022-10-31T16:50:30;10.77;;;6.43;;
22543;SDS011;11438;52.044;8.716;2022-10-31T16:52:56;13.20;;;6.38;;
22543;SDS011;11438;52.044;8.716;2022-10-31T16:55:21;7.90;;;5.57;;
22543;SDS011;11438;52.044;8.716;2022-10-31T16:57:48;9.02;;;5.55;;
22543;SDS011;11438;52.044;8.716;2022-10-31T17:00:17;10.40;;;5.40;;
22543;SDS011;11438;52.044;8.716;2022-10-31T17:02:47;10.38;;;5.25;;
22543;SDS011;11438;52.044;8.716;2022-10-31T17:05:16;7.60;;;5.55;;
22543;SDS011;11438;52.044;8.716;2022-10-31T17:07:42;8.90;;;5.22;;
22543;SDS011;11438;52.044;8.716;2022-10-31T17:10:08;10.07;;;5.53;;
22543;SDS011;11438;52.044;8.716;2022-10-31T17:12:36;8.95;;;5.47;;
22543;SDS011;11438;52.044;8.716;2022-10-31T17:15:02;8.65;;;5.70;;
22543;SDS011;11438;52.044;8.716;2022-10-31T17:17:28;8.75;;;5.68;;
22543;SDS011;11438;52.044;8.716;2022-10-31T17:19:53;10.02;;;5.43;;
22543;SDS011;11438;52.044;8.716;2022-10-31T17:22:19;9.48;;;5.82;;
22543;SDS011;11438;52.044;8.716;2022-10-31T17:24:44;9.15;;;5.07;;
22543;SDS011;11438;52.044;8.716;2022-10-31T17:27:10;9.35;;;5.05;;
22543;SDS011;11438;52.044;8.716;2022-10-31T17:29:35;9.82;;;6.30;;